Time;durP1;ratioP1;P1;durP2;ratioP2;P2;SDS_P1;SDS_P2;PMS_P1;PMS_P2;Temp;Humidity;BMP_temperature;BMP_pressure;BME280_temperature;BME280_humidity;BME280_pressure;Samples;Min_cycle;Max_cycle;Signal;HPM_P1;HPM_P2
2023/02/20 00:00:09;;;;;;;16.73;4.53;;;14.70;43.80;;;;;;20811614;28;20100;-57
2023/02/20 00:10:11;;;;;;;15.60;3.60;;;14.70;43.90;;;;;;20828622;28;20045;-58
2023/02/20 00:20:18;;;;;;;11.98;3.60;;;14.60;43.70;;;;;;20829281;28;20053;-56
2023/02/20 00:30:21;;;;;;;6.85;3.30;;;14.50;44.30;;;;;;20840059;28;20057;-63
2023/02/20 00:40:24;;;;;;;11.68;3.88;;;14.30;44.30;;;;;;20842371;28;20057;-58
2023/02/20 00:50:24;;;;;;;10.77;4.13;;;14.30;44.00;;;;;;20841616;28;20053;-62
2023/02/20 01:00:28;;;;;;;11.05;3.00;;;14.20;44.30;;;;;;20840739;28;20133;-60
2023/02/20 01:10:29;;;;;;;11.95;3.97;;;14.10;44.40;;;;;;20840673;28;20053;-56
2023/02/20 01:20:29;;;;;;;11.60;3.13;;;14.10;45.10;;;;;;20840557;28;20490;-57
2023/02/20 01:30:30;;;;;;;15.10;3.28;;;13.90;44.50;;;;;;20838899;28;20056;-55
2023/02/20 01:40:33;;;;;;;11.02;3.08;;;13.80;43.90;;;;;;20838466;28;20057;-56
2023/02/20 01:50:44;;;;;;;12.25;4.32;;;13.80;43.80;;;;;;20837822;28;20072;-55
2023/02/20 02:00:45;;;;;;;13.57;4.45;;;13.70;46.00;;;;;;20837299;28;20543;-56
2023/02/20 02:10:55;;;;;;;8.93;4.63;;;13.50;47.20;;;;;;20835169;28;20049;-55
2023/02/20 02:20:57;;;;;;;11.25;4.20;;;13.40;48.70;;;;;;20834179;28;20052;-57
2023/02/20 02:31:53;;;;;;;16.35;5.10;;;13.20;50.10;;;;;;20833825;28;20058;-55
2023/02/20 02:42:12;;;;;;;15.65;4.47;;;13.20;50.60;;;;;;20824117;28;20108;-56
2023/02/20 02:52:37;;;;;;;11.80;4.47;;;12.90;52.60;;;;;;20823599;28;20046;-56
2023/02/20 03:02:44;;;;;;;13.15;4.03;;;12.30;55.20;;;;;;20823540;28;20046;-55
2023/02/20 03:12:50;;;;;;;11.23;4.18;;;11.90;56.90;;;;;;20830109;28;20050;-55
2023/02/20 03:22:58;;;;;;;13.38;3.85;;;11.70;57.50;;;;;;20831811;28;20455;-56
2023/02/20 03:43:32;;;;;;;9.52;3.53;;;11.20;58.80;;;;;;20830540;28;20518;-57
2023/02/20 03:53:35;;;;;;;19.25;4.47;;;11.10;59.50;;;;;;20829466;28;20103;-57
2023/02/20 04:03:41;;;;;;;15.30;4.68;;;11.10;59.30;;;;;;20840092;28;20049;-56
2023/02/20 04:13:43;;;;;;;11.48;4.13;;;11.00;59.70;;;;;;20844950;28;20424;-57
2023/02/20 04:23:53;;;;;;;12.40;4.68;;;10.80;60.30;;;;;;20844426;28;20057;-56
2023/02/20 04:33:56;;;;;;;14.32;4.50;;;10.70;60.50;;;;;;20844490;28;20547;-57
2023/02/20 04:54:21;;;;;;;10.80;4.07;;;10.40;61.10;;;;;;20844516;28;20045;-57
2023/02/20 05:04:23;;;;;;;14.13;4.50;;;10.30;61.10;;;;;;20841339;28;20054;-56
2023/02/20 05:14:25;;;;;;;18.08;4.15;;;10.20;61.50;;;;;;20840227;28;20064;-55
2023/02/20 05:24:27;;;;;;;14.82;4.35;;;10.10;61.80;;;;;;20841775;28;20524;-56
2023/02/20 05:34:29;;;;;;;12.25;4.20;;;10.00;62.20;;;;;;20839644;28;20049;-56
2023/02/20 05:44:31;;;;;;;13.90;4.35;;;9.80;62.60;;;;;;20838921;28;20390;-54
2023/02/20 05:54:33;;;;;;;13.82;4.35;;;9.70;62.80;;;;;;20837883;28;20099;-56
2023/02/20 06:04:35;;;;;;;12.52;3.67;;;9.60;62.80;;;;;;20836955;28;20401;-57
2023/02/20 06:14:37;;;;;;;15.95;5.22;;;9.60;62.80;;;;;;20835261;28;20041;-56
2023/02/20 06:24:44;;;;;;;14.20;4.20;;;9.50;63.00;;;;;;20834023;28;20066;-65
2023/02/20 06:34:47;;;;;;;17.20;6.25;;;9.40;63.00;;;;;;20833015;28;20077;-56
2023/02/20 06:44:48;;;;;;;13.90;4.53;;;9.30;63.20;;;;;;20834353;28;20052;-58
2023/02/20 06:54:51;;;;;;;16.08;5.07;;;9.30;63.20;;;;;;20835815;28;20049;-54
2023/02/20 07:04:53;;;;;;;20.65;6.65;;;9.30;63.30;;;;;;20836893;28;20074;-57
2023/02/20 07:14:54;;;;;;;22.35;6.50;;;9.20;63.20;;;;;;20828895;28;20049;-56
2023/02/20 07:24:57;;;;;;;16.63;6.00;;;9.20;63.10;;;;;;20829109;28;20045;-56
2023/02/20 07:34:59;;;;;;;17.33;5.57;;;9.20;63.40;;;;;;20837584;28;20096;-57
2023/02/20 07:45:01;;;;;;;21.33;6.93;;;9.20;63.40;;;;;;20845852;28;20049;-55
2023/02/20 07:55:03;;;;;;;25.73;8.23;;;9.20;63.20;;;;;;20846300;28;20049;-56
2023/02/20 08:05:05;;;;;;;15.48;5.10;;;9.30;62.80;;;;;;20845343;28;20103;-56
2023/02/20 08:15:10;;;;;;;18.00;7.10;;;9.40;62.30;;;;;;20845492;28;20582;-56
2023/02/20 08:25:13;;;;;;;18.95;7.28;;;9.50;62.00;;;;;;20844003;28;20061;-57
2023/02/20 08:35:15;;;;;;;20.08;6.13;;;9.70;61.40;;;;;;20842200;28;20045;-56
2023/02/20 08:45:18;;;;;;;24.13;7.45;;;10.00;60.90;;;;;;20840175;28;20060;-59
2023/02/20 08:55:19;;;;;;;19.00;6.90;;;10.20;60.40;;;;;;20839914;28;20112;-56
2023/02/20 09:05:21;;;;;;;34.15;7.70;;;10.50;59.60;;;;;;20841287;28;20132;-58
2023/02/20 09:15:23;;;;;;;27.45;7.43;;;10.70;59.00;;;;;;20840061;28;20092;-56
2023/02/20 09:25:26;;;;;;;30.35;7.65;;;11.10;58.20;;;;;;20839489;28;20413;-56
2023/02/20 09:35:29;;;;;;;26.38;8.20;;;11.60;57.10;;;;;;20837107;28;20136;-57
2023/02/20 09:45:32;;;;;;;25.08;7.82;;;12.00;55.90;;;;;;20837284;28;20380;-55
2023/02/20 09:55:39;;;;;;;23.95;6.95;;;12.20;55.00;;;;;;20836227;28;20227;-57
2023/02/20 10:05:43;;;;;;;14.27;4.65;;;12.60;53.90;;;;;;20834993;28;20478;-54
2023/02/20 10:15:58;;;;;;;16.85;5.32;;;13.00;51.50;;;;;;20834745;28;20076;-57
2023/02/20 10:26:05;;;;;;;11.63;3.90;;;13.20;51.00;;;;;;20833719;28;20497;-56
2023/02/20 10:36:33;;;;;;;9.13;3.30;;;13.60;48.90;;;;;;20833115;28;20053;-55
2023/02/20 10:46:46;;;;;;;10.82;3.47;;;13.80;47.00;;;;;;20833690;28;20053;-55
2023/02/20 10:56:57;;;;;;;12.25;2.58;;;14.00;44.70;;;;;;20833165;28;20121;-55
2023/02/20 11:07:10;;;;;;;7.88;2.35;;;14.60;40.90;;;;;;20830535;28;20046;-55
2023/02/20 11:17:20;;;;;;;9.88;2.70;;;14.80;39.30;;;;;;20830595;28;20132;-56
2023/02/20 11:27:24;;;;;;;8.45;2.85;;;15.10;38.20;;;;;;20829668;28;20151;-56
2023/02/20 11:37:25;;;;;;;15.13;2.50;;;15.40;36.50;;;;;;20830716;28;20390;-55
2023/02/20 11:47:28;;;;;;;10.45;2.78;;;15.60;36.00;;;;;;20828974;28;20053;-55
2023/02/20 11:57:30;;;;;;;13.60;2.65;;;15.90;36.90;;;;;;20829524;28;20050;-56
2023/02/20 12:07:34;;;;;;;7.18;2.67;;;16.10;35.80;;;;;;20830920;28;20567;-55
2023/02/20 12:18:04;;;;;;;4.70;1.90;;;16.40;34.20;;;;;;20829299;28;20088;-56
2023/02/20 12:28:06;;;;;;;7.47;1.92;;;16.60;33.60;;;;;;20843627;28;20054;-55
2023/02/20 12:38:35;;;;;;;9.98;2.70;;;16.70;33.80;;;;;;20842345;28;20045;-57
2023/02/20 12:49:13;;;;;;;8.43;2.53;;;16.90;33.40;;;;;;20842971;28;20486;-56
2023/02/20 12:59:21;;;;;;;6.43;2.70;;;17.00;33.30;;;;;;20841081;28;20136;-56
2023/02/20 13:09:30;;;;;;;11.98;2.70;;;17.20;33.70;;;;;;20839467;28;20053;-56
2023/02/20 13:19:50;;;;;;;7.65;2.50;;;17.30;33.80;;;;;;20840714;28;20053;-56
2023/02/20 13:30:01;;;;;;;9.20;2.72;;;17.40;33.70;;;;;;20837863;28;20188;-56
2023/02/20 13:40:29;;;;;;;9.05;2.65;;;17.50;33.70;;;;;;20838620;28;20477;-56
2023/02/20 13:50:31;;;;;;;7.95;2.20;;;17.70;33.40;;;;;;20836980;28;20103;-56
2023/02/20 14:00:53;;;;;;;6.33;2.03;;;17.70;32.80;;;;;;20837265;28;20053;-58
2023/02/20 14:10:54;;;;;;;9.13;2.33;;;17.80;32.70;;;;;;20836978;28;20080;-60
2023/02/20 14:21:04;;;;;;;6.93;2.05;;;18.10;32.10;;;;;;20835855;28;20057;-59
2023/02/20 14:31:29;;;;;;;7.40;2.00;;;18.30;31.70;;;;;;20834077;28;20104;-60
2023/02/20 14:41:31;;;;;;;8.07;2.50;;;18.40;31.30;;;;;;20833684;28;20045;-56
2023/02/20 14:51:32;;;;;;;12.20;3.45;;;18.40;31.00;;;;;;20832363;28;20050;-57
2023/02/20 15:01:38;;;;;;;12.88;3.47;;;18.60;28.90;;;;;;20834062;28;20107;-57
2023/02/20 15:11:55;;;;;;;9.80;2.95;;;18.80;27.50;;;;;;20829563;28;20099;-54
2023/02/20 15:21:58;;;;;;;12.48;3.55;;;18.90;27.60;;;;;;20830943;28;20586;-57
2023/02/20 15:32:23;;;;;;;11.60;3.30;;;18.90;27.60;;;;;;20829714;28;20138;-60
2023/02/20 15:42:25;;;;;;;8.93;2.45;;;19.00;27.60;;;;;;20830729;28;20049;-59
2023/02/20 15:52:28;;;;;;;11.45;2.50;;;18.90;27.20;;;;;;20831478;28;20484;-55
2023/02/20 16:02:31;;;;;;;13.52;2.97;;;18.90;27.20;;;;;;20846656;28;20387;-56
2023/02/20 16:12:37;;;;;;;11.63;3.63;;;18.70;28.10;;;;;;20846046;28;20049;-57
2023/02/20 16:22:39;;;;;;;10.13;3.08;;;18.80;27.40;;;;;;20843854;28;20060;-60
2023/02/20 16:32:43;;;;;;;10.80;3.45;;;18.70;28.00;;;;;;20845517;28;20048;-56
2023/02/20 16:42:45;;;;;;;9.48;3.70;;;18.70;28.40;;;;;;20843043;28;20053;-57
2023/02/20 16:52:50;;;;;;;11.70;2.85;;;18.60;28.40;;;;;;20842107;28;20496;-56
2023/02/20 17:02:53;;;;;;;14.02;2.70;;;18.40;28.10;;;;;;20840385;28;20046;-56
2023/02/20 17:12:56;;;;;;;7.45;2.47;;;18.30;28.60;;;;;;20836994;28;20098;-56
2023/02/20 17:22:58;;;;;;;11.23;5.07;;;18.10;28.60;;;;;;20908328;28;20067;-58
2023/02/20 17:32:59;;;;;;;6.47;2.55;;;17.90;28.60;;;;;;20907531;28;20397;-60
2023/02/20 17:43:01;;;;;;;8.55;2.97;;;17.80;29.00;;;;;;20911340;28;20515;-59
2023/02/20 17:53:02;;;;;;;7.95;3.03;;;17.70;29.10;;;;;;20908244;28;20103;-56
2023/02/20 18:03:04;;;;;;;7.38;4.10;;;17.50;29.60;;;;;;20909827;28;20052;-60
2023/02/20 18:13:05;;;;;;;5.50;2.15;;;17.30;30.00;;;;;;20909360;28;20493;-58
2023/02/20 18:23:08;;;;;;;7.43;3.20;;;17.20;29.90;;;;;;20907571;28;20054;-57
2023/02/20 18:33:10;;;;;;;6.03;2.83;;;17.00;30.00;;;;;;20910626;28;20140;-58
2023/02/20 18:43:13;;;;;;;7.60;3.40;;;16.90;31.50;;;;;;20915901;28;20049;-58
2023/02/20 18:53:14;;;;;;;9.43;3.28;;;16.80;31.50;;;;;;20915190;28;20045;-58
2023/02/20 19:03:17;;;;;;;9.98;3.65;;;16.70;31.40;;;;;;20915170;28;20056;-57
2023/02/20 19:13:21;;;;;;;10.68;5.25;;;16.60;32.70;;;;;;20913404;28;20448;-59
2023/02/20 19:23:23;;;;;;;11.55;3.13;;;16.50;32.20;;;;;;20913110;28;20057;-57
2023/02/20 19:33:25;;;;;;;12.15;5.20;;;16.30;31.80;;;;;;20913111;28;20052;-59
2023/02/20 19:43:28;;;;;;;9.93;4.90;;;16.30;32.00;;;;;;20911453;28;20056;-60
2023/02/20 19:53:30;;;;;;;9.32;4.40;;;16.10;32.20;;;;;;20913270;28;20452;-57
2023/02/20 20:03:31;;;;;;;12.35;5.72;;;16.10;32.20;;;;;;20913055;28;20053;-59
2023/02/20 20:13:33;;;;;;;7.57;3.90;;;16.00;32.90;;;;;;20912067;28;20440;-59
2023/02/20 20:23:34;;;;;;;11.45;4.53;;;16.00;32.60;;;;;;20910403;28;20136;-60
2023/02/20 20:33:36;;;;;;;14.40;5.32;;;15.90;32.90;;;;;;20911820;28;20053;-59
2023/02/20 20:43:37;;;;;;;12.25;6.13;;;15.80;33.60;;;;;;20918487;28;20057;-65
2023/02/20 20:53:38;;;;;;;13.40;6.03;;;15.70;33.20;;;;;;20924206;28;20044;-57
2023/02/20 21:03:40;;;;;;;19.98;7.28;;;15.70;33.50;;;;;;20923703;28;20497;-58
2023/02/20 21:13:45;;;;;;;18.05;8.60;;;15.50;33.80;;;;;;20923280;28;20423;-58
2023/02/20 21:23:47;;;;;;;11.25;6.18;;;15.40;34.30;;;;;;20921931;28;20056;-68
2023/02/20 21:33:53;;;;;;;14.85;4.53;;;15.20;33.80;;;;;;20921832;28;20041;-63
2023/02/20 21:54:32;;;;;;;10.07;4.65;;;15.10;34.10;;;;;;20843391;28;20049;-69
